createdAt,value
2019-04-28T00:03:05.385Z,301.5
2019-04-28T00:08:13.778Z,301.4
2019-04-28T00:13:24.111Z,301.6
2019-04-28T00:18:30.853Z,301.8
2019-04-28T00:23:39.319Z,301.9
2019-04-28T00:28:47.920Z,301.5
2019-04-28T00:33:56.374Z,301.4
2019-04-28T00:39:05.182Z,301.6
2019-04-28T00:49:22.058Z,301.7
2019-04-28T00:54:30.380Z,301.9
2019-04-28T00:59:38.851Z,302
2019-04-28T01:04:47.537Z,301.8
2019-04-28T01:09:56.174Z,301.7
2019-04-28T01:15:04.458Z,301.8
2019-04-28T01:40:47.005Z,301.4
2019-04-28T01:45:55.416Z,301.5
2019-04-28T01:51:03.924Z,301.5
2019-04-28T01:56:12.382Z,301.6
2019-04-28T02:01:20.884Z,301.3
2019-04-28T02:06:34.952Z,301.9
2019-04-28T02:11:37.863Z,301.5
2019-04-28T02:16:46.404Z,301.3
2019-04-28T02:21:54.886Z,301.5
2019-04-28T02:37:20.721Z,301.7
2019-04-28T02:42:28.996Z,301.5
2019-04-28T02:52:46.057Z,301.4
2019-04-28T02:57:54.608Z,301.4
2019-04-28T03:03:03.066Z,301.6
2019-04-28T03:13:20.264Z,301.4
2019-04-28T03:18:28.634Z,301.5
2019-04-28T03:28:45.682Z,301.6
2019-04-28T03:39:02.919Z,301.6
2019-04-28T03:44:11.393Z,301.5
2019-04-28T03:49:19.880Z,302
2019-04-28T03:59:36.896Z,301.5
2019-04-28T04:20:10.921Z,301.8
2019-04-28T04:30:28.003Z,301.5
2019-04-28T04:45:53.449Z,301.6
2019-04-28T04:56:10.647Z,301.3
2019-04-28T05:01:18.938Z,301.5
2019-04-28T05:11:35.906Z,301.9
2019-04-28T05:21:52.842Z,301.4
2019-04-28T05:32:09.825Z,301.6
2019-04-28T05:42:26.718Z,301.8
2019-04-28T05:47:35.340Z,301.6
2019-04-28T06:03:00.519Z,301.5
2019-04-28T06:08:08.934Z,301.7
2019-04-28T06:13:17.426Z,301.1
2019-04-28T06:23:34.160Z,301.5
2019-04-28T06:44:07.574Z,301.3
2019-04-28T06:49:15.947Z,301.3
2019-04-28T06:54:24.320Z,301
2019-04-28T07:04:40.824Z,301.7
2019-04-28T07:09:49.118Z,301.4
2019-04-28T07:14:57.420Z,301.4
2019-04-28T07:25:13.840Z,301.5
2019-04-28T07:40:38.439Z,301.5
2019-04-28T07:45:46.635Z,301.8
2019-04-28T07:56:02.837Z,301.7
2019-04-28T08:01:10.879Z,301.4
2019-04-28T08:06:19.084Z,301.5
2019-04-28T08:26:51.122Z,301.4
2019-04-28T08:31:59.146Z,301.8
2019-04-28T08:37:07.159Z,301.2
2019-04-28T08:47:23.008Z,301.3
2019-04-28T08:52:31.107Z,301.5
2019-04-28T08:57:39.008Z,301
2019-04-28T09:07:55.105Z,300.8
2019-04-28T09:13:03.195Z,301
2019-04-28T09:23:19.465Z,300.9
2019-04-28T09:28:27.707Z,301
2019-04-28T09:33:35.723Z,300.9
2019-04-28T09:43:52.071Z,300.8
2019-04-28T09:49:00.274Z,300.6
2019-04-28T09:54:08.465Z,300.9
2019-04-28T10:04:24.736Z,300.8
2019-04-28T10:09:32.897Z,300.9
2019-04-28T10:14:41.095Z,300.9
2019-04-28T10:24:57.211Z,300.8
2019-04-28T10:30:05.316Z,300.8
2019-04-28T10:40:21.357Z,300.9
2019-04-28T10:50:37.264Z,301
2019-04-28T11:16:16.767Z,300.8
2019-04-28T11:21:24.648Z,300.9
2019-04-28T11:31:40.258Z,300.7
2019-04-28T11:41:55.575Z,300.7
2019-04-28T11:52:10.806Z,301
2019-04-28T12:02:25.841Z,300.8
2019-04-28T12:12:40.867Z,300.6
2019-04-28T12:17:48.459Z,300.8
2019-04-28T12:22:55.783Z,300.8
2019-04-28T12:33:10.755Z,300.7
2019-04-28T12:38:18.274Z,300.6
2019-04-28T12:53:40.717Z,300.8
2019-04-28T12:58:48.233Z,300.7
2019-04-28T13:03:55.767Z,300.7
2019-04-28T13:14:11.067Z,301.1
2019-04-28T13:19:18.675Z,300.9
2019-04-28T13:29:35.155Z,300.9
2019-04-28T13:34:41.739Z,300.9
2019-04-28T13:44:57.344Z,301.3
2019-04-28T13:50:05.168Z,301
2019-04-28T13:55:12.857Z,300.8
2019-04-28T14:00:20.653Z,300.8
2019-04-28T14:05:28.456Z,300.7
2019-04-28T14:10:36.375Z,300.7
2019-04-28T14:15:45.074Z,300.9
2019-04-28T14:36:14.895Z,300.7
2019-04-28T14:46:30.397Z,300.6
2019-04-28T14:56:46.128Z,300.7
2019-04-28T15:07:01.358Z,300.6
2019-04-28T15:17:16.934Z,300.7
2019-04-28T15:27:32.270Z,300.8
2019-04-28T15:48:03.211Z,300.6
2019-04-28T15:58:18.680Z,300.5
2019-04-28T16:29:04.947Z,300.8
2019-04-28T16:39:20.540Z,301
2019-04-28T16:49:35.812Z,301.3
2019-04-28T17:10:06.481Z,300.7
2019-04-28T17:20:21.607Z,300.8
2019-04-28T17:30:36.896Z,300.8
2019-04-28T17:40:52.029Z,300.8
2019-04-28T18:01:22.141Z,300.7
2019-04-28T18:11:37.031Z,300.7
2019-04-28T18:21:52.708Z,300.7
2019-04-28T18:32:07.263Z,300.9
2019-04-28T18:42:22.440Z,300.9
2019-04-28T18:52:37.748Z,300.8
2019-04-28T19:02:53.239Z,301.1
2019-04-28T19:13:08.865Z,301.1
2019-04-28T19:23:24.642Z,301.4
2019-04-28T19:43:56.273Z,301.6
2019-04-28T19:54:12.299Z,301.3
2019-04-28T20:04:28.486Z,301.2
2019-04-28T20:14:45.057Z,301.3
2019-04-28T20:19:52.834Z,301
2019-04-28T20:25:04.016Z,300.9
2019-04-28T20:35:17.322Z,301.3
2019-04-28T20:45:33.746Z,301.7
2019-04-28T20:50:42.085Z,301.4
2019-04-28T20:55:51.023Z,301.7
2019-04-28T21:06:06.862Z,301.5
2019-04-28T21:26:40.137Z,301.3
2019-04-28T21:36:56.768Z,301.5
2019-04-28T21:47:13.509Z,301.5
2019-04-28T21:57:30.216Z,301.5
2019-04-28T22:18:09.396Z,301.5
2019-04-28T22:28:20.714Z,301.7
2019-04-28T22:38:37.653Z,301.4
2019-04-28T22:48:54.585Z,301.3
2019-04-28T23:09:28.573Z,301.6
2019-04-28T23:19:45.578Z,301.6
2019-04-28T23:30:02.618Z,301.6
2019-04-28T23:40:19.671Z,301.6
2019-04-28T23:50:36.825Z,301.5
